createdAt,value
2019-05-11T00:00:11.858Z,0.70
2019-05-11T00:03:15.053Z,0.70
2019-05-11T00:06:26.083Z,0.50
2019-05-11T00:09:30.505Z,0.67
2019-05-11T00:12:34.464Z,0.70
2019-05-11T00:15:27.557Z,0.50
2019-05-11T00:18:39.862Z,0.50
2019-05-11T00:21:36.316Z,0.70
2019-05-11T00:24:42.826Z,0.40
2019-05-11T00:27:36.658Z,0.50
2019-05-11T00:30:59.766Z,0.40
2019-05-11T00:34:04.110Z,0.30
2019-05-11T00:37:05.914Z,0.60
2019-05-11T00:40:13.973Z,0.60
2019-05-11T00:43:11.392Z,0.43
2019-05-11T00:46:09.290Z,0.40
2019-05-11T00:49:10.806Z,0.50
2019-05-11T00:52:13.044Z,0.50
2019-05-11T00:55:23.449Z,0.57
2019-05-11T00:58:31.142Z,0.47
2019-05-11T01:01:27.241Z,0.50
2019-05-11T01:04:27.505Z,0.63
2019-05-11T01:07:32.895Z,0.53
2019-05-11T01:10:42.185Z,0.77
2019-05-11T01:13:50.017Z,0.50
2019-05-11T01:16:42.741Z,0.60
2019-05-11T01:19:50.705Z,0.57
2019-05-11T01:23:01.832Z,0.60
2019-05-11T01:26:35.927Z,0.60
2019-05-11T01:29:15.009Z,0.57
2019-05-11T01:32:21.749Z,0.73
2019-05-11T01:35:18.149Z,0.70
2019-05-11T01:38:19.492Z,0.90
2019-05-11T01:41:18.532Z,0.50
2019-05-11T01:44:23.377Z,0.50
2019-05-11T01:47:13.558Z,0.50
2019-05-11T01:50:09.645Z,0.53
2019-05-11T01:53:06.625Z,0.50
2019-05-11T01:56:09.127Z,0.60
2019-05-11T01:59:13.226Z,0.70
2019-05-11T02:02:27.553Z,0.50
2019-05-11T02:05:16.187Z,0.67
2019-05-11T02:08:21.133Z,0.50
2019-05-11T02:11:40.735Z,0.70
2019-05-11T02:15:01.844Z,0.80
2019-05-11T02:18:05.129Z,0.60
2019-05-11T02:21:14.849Z,0.60
2019-05-11T02:24:13.527Z,0.80
2019-05-11T02:27:06.620Z,0.40
2019-05-11T02:30:10.804Z,0.40
2019-05-11T02:33:20.796Z,0.67
2019-05-11T02:36:21.432Z,0.87
2019-05-11T02:39:27.151Z,0.57
2019-05-11T02:42:46.316Z,0.50
2019-05-11T02:45:52.224Z,0.70
2019-05-11T02:48:53.899Z,0.73
2019-05-11T02:52:02.645Z,0.53
2019-05-11T02:55:02.238Z,0.53
2019-05-11T02:58:09.441Z,0.50
2019-05-11T03:01:13.692Z,0.80
2019-05-11T03:04:18.922Z,0.60
2019-05-11T03:07:14.034Z,0.50
2019-05-11T03:10:21.559Z,0.60
2019-05-11T03:13:22.140Z,0.53
2019-05-11T03:16:28.482Z,0.40
2019-05-11T03:19:29.788Z,0.77
2019-05-11T03:22:33.396Z,0.63
2019-05-11T03:25:42.748Z,0.70
2019-05-11T03:28:37.025Z,0.50
2019-05-11T03:31:35.142Z,0.60
2019-05-11T03:34:45.600Z,0.50
2019-05-11T03:41:04.444Z,0.43
2019-05-11T03:44:08.828Z,0.40
2019-05-11T03:47:02.787Z,0.60
2019-05-11T03:50:08.044Z,0.50
2019-05-11T03:53:14.966Z,0.40
2019-05-11T03:56:17.828Z,0.60
2019-05-11T03:59:36.073Z,0.63
2019-05-11T04:02:43.913Z,0.67
2019-05-11T04:05:43.722Z,0.50
2019-05-11T04:08:33.715Z,0.60
2019-05-11T04:11:37.179Z,0.60
2019-05-11T04:14:40.451Z,0.80
2019-05-11T04:17:43.175Z,0.70
2019-05-11T04:20:42.708Z,0.90
2019-05-11T04:23:46.133Z,0.60
2019-05-11T04:26:42.792Z,0.60
2019-05-11T04:29:43.819Z,0.70
2019-05-11T04:32:41.506Z,0.60
2019-05-11T04:35:37.935Z,0.53
2019-05-11T04:38:50.984Z,0.53
2019-05-11T04:41:54.907Z,0.63
2019-05-11T04:45:06.043Z,0.70
2019-05-11T04:48:01.456Z,0.80
2019-05-11T04:50:54.229Z,0.47
2019-05-11T04:54:15.229Z,0.47
2019-05-11T04:57:12.844Z,0.67
2019-05-11T05:00:19.062Z,0.87
2019-05-11T05:03:21.268Z,0.77
2019-05-11T05:06:24.348Z,0.60
2019-05-11T05:09:20.302Z,0.57
2019-05-11T05:12:26.423Z,0.60
2019-05-11T05:15:18.137Z,0.50
2019-05-11T05:18:22.349Z,0.57
2019-05-11T05:21:20.636Z,0.53
2019-05-11T05:24:13.532Z,0.83
2019-05-11T05:27:08.262Z,0.50
2019-05-11T05:30:17.444Z,0.50
2019-05-11T05:33:15.680Z,0.80
2019-05-11T05:36:26.471Z,0.70
2019-05-11T05:39:22.268Z,0.60
2019-05-11T05:42:24.122Z,0.80
2019-05-11T05:45:24.253Z,0.60
2019-05-11T05:48:30.496Z,0.50
2019-05-11T05:51:37.743Z,0.73
2019-05-11T05:54:40.624Z,0.83
2019-05-11T05:57:40.493Z,0.63
2019-05-11T06:00:50.260Z,0.80
2019-05-11T06:07:08.710Z,0.83
2019-05-11T06:10:10.870Z,0.77
2019-05-11T06:13:11.036Z,0.90
2019-05-11T06:16:11.870Z,0.70
2019-05-11T06:19:25.148Z,0.70
2019-05-11T06:22:30.867Z,0.50
2019-05-11T06:25:28.712Z,0.60
2019-05-11T06:28:21.265Z,0.40
2019-05-11T06:31:28.123Z,0.47
2019-05-11T06:34:23.180Z,0.37
2019-05-11T06:37:26.644Z,0.40
2019-05-11T06:43:59.563Z,0.67
2019-05-11T06:46:48.906Z,0.60
2019-05-11T06:50:17.265Z,0.80
2019-05-11T06:53:28.096Z,0.40
2019-05-11T06:56:28.359Z,0.60
2019-05-11T06:59:28.158Z,0.90
2019-05-11T07:02:34.777Z,0.60
2019-05-11T07:05:33.232Z,0.60
2019-05-11T07:08:32.814Z,0.63
2019-05-11T07:11:32.222Z,0.50
2019-05-11T07:14:36.417Z,0.47
2019-05-11T07:17:42.270Z,0.60
2019-05-11T07:20:50.641Z,0.90
2019-05-11T07:23:46.658Z,0.53
2019-05-11T07:26:52.536Z,0.83
2019-05-11T07:29:52.214Z,0.70
2019-05-11T07:33:01.049Z,0.80
2019-05-11T07:35:55.428Z,0.70
2019-05-11T07:38:59.574Z,0.57
2019-05-11T07:41:49.406Z,0.80
2019-05-11T07:44:53.539Z,0.73
2019-05-11T07:48:00.177Z,0.90
2019-05-11T07:54:15.049Z,0.90
2019-05-11T07:57:28.237Z,0.60
2019-05-11T08:00:24.829Z,0.50
2019-05-11T08:03:28.329Z,0.60
2019-05-11T08:06:18.536Z,0.50
2019-05-11T08:09:41.431Z,0.80
2019-05-11T08:12:39.170Z,0.57
2019-05-11T08:15:49.373Z,0.80
2019-05-11T08:18:58.626Z,0.80
2019-05-11T08:22:02.572Z,0.70
2019-05-11T08:24:58.629Z,0.70
2019-05-11T08:28:02.602Z,0.63
2019-05-11T08:30:58.042Z,0.80
2019-05-11T08:36:59.419Z,0.80
2019-05-11T08:40:07.828Z,0.60
2019-05-11T08:43:21.236Z,0.70
2019-05-11T08:46:28.414Z,0.60
2019-05-11T08:49:34.592Z,1.03
2019-05-11T08:52:47.982Z,0.83
2019-05-11T08:55:48.621Z,0.60
2019-05-11T08:58:55.193Z,0.87
2019-05-11T09:01:54.797Z,0.70
2019-05-11T09:04:51.525Z,0.50
2019-05-11T09:07:45.179Z,0.57
2019-05-11T09:10:49.068Z,0.73
2019-05-11T09:13:48.840Z,0.77
2019-05-11T09:19:50.819Z,0.77
2019-05-11T09:22:49.585Z,0.80
2019-05-11T09:25:49.648Z,0.73
2019-05-11T09:28:55.165Z,0.60
2019-05-11T09:31:58.515Z,0.70
2019-05-11T09:34:59.976Z,0.57
2019-05-11T09:37:52.766Z,0.63
2019-05-11T09:41:08.093Z,0.90
2019-05-11T09:44:05.169Z,0.50
2019-05-11T09:47:19.828Z,0.77
2019-05-11T09:50:13.973Z,0.60
2019-05-11T09:53:12.656Z,0.80
2019-05-11T09:56:18.227Z,0.70
2019-05-11T09:59:18.087Z,0.90
2019-05-11T10:02:21.152Z,0.87
2019-05-11T10:08:38.088Z,0.57
2019-05-11T10:11:47.854Z,0.60
2019-05-11T10:14:48.445Z,0.93
2019-05-11T10:17:59.060Z,0.87
2019-05-11T10:21:03.081Z,0.70
2019-05-11T10:24:18.194Z,0.90
2019-05-11T10:27:23.814Z,0.70
2019-05-11T10:30:21.635Z,0.80
2019-05-11T10:33:25.458Z,0.80
2019-05-11T10:36:20.650Z,0.60
2019-05-11T10:39:24.772Z,0.70
2019-05-11T10:42:34.586Z,0.57
2019-05-11T10:45:40.137Z,0.60
2019-05-11T10:48:42.499Z,0.90
2019-05-11T10:51:55.749Z,0.80
2019-05-11T10:55:09.010Z,0.80
2019-05-11T10:58:08.595Z,0.73
2019-05-11T11:01:09.132Z,0.60
2019-05-11T11:04:08.113Z,1.00
2019-05-11T11:07:12.191Z,0.60
2019-05-11T11:10:28.429Z,0.80
2019-05-11T11:13:28.120Z,0.93
2019-05-11T11:16:35.692Z,0.67
2019-05-11T11:19:32.865Z,0.73
2019-05-11T11:22:39.922Z,0.73
2019-05-11T11:25:41.042Z,0.70
2019-05-11T11:28:47.529Z,0.90
2019-05-11T11:31:53.125Z,0.90
2019-05-11T11:34:50.318Z,0.83
2019-05-11T11:38:08.715Z,0.43
2019-05-11T11:41:19.064Z,0.93
2019-05-11T11:44:15.575Z,1.00
2019-05-11T11:47:21.010Z,0.80
2019-05-11T11:50:22.086Z,1.00
2019-05-11T11:53:27.936Z,1.30
2019-05-11T11:56:37.754Z,1.13
2019-05-11T12:00:05.207Z,0.93
2019-05-11T12:03:18.482Z,1.17
2019-05-11T12:06:13.709Z,1.50
2019-05-11T12:09:18.077Z,1.50
2019-05-11T12:12:11.365Z,1.40
2019-05-11T12:15:08.865Z,1.70
2019-05-11T12:18:11.016Z,1.50
2019-05-11T12:21:23.490Z,1.30
2019-05-11T12:24:23.868Z,1.40
2019-05-11T12:27:38.329Z,1.50
2019-05-11T12:30:37.543Z,1.47
2019-05-11T12:33:52.530Z,1.50
2019-05-11T12:37:08.470Z,1.43
2019-05-11T12:40:02.908Z,1.33
2019-05-11T12:43:07.522Z,1.40
2019-05-11T12:46:13.026Z,1.50
2019-05-11T12:49:12.142Z,1.20
2019-05-11T12:52:14.892Z,1.33
2019-05-11T12:55:28.744Z,1.30
2019-05-11T12:58:24.075Z,1.27
2019-05-11T13:01:13.007Z,1.23
2019-05-11T13:04:18.157Z,1.17
2019-05-11T13:07:30.720Z,1.03
2019-05-11T13:10:39.611Z,1.33
2019-05-11T13:13:39.022Z,1.20
2019-05-11T13:16:38.022Z,1.30
2019-05-11T13:19:39.492Z,1.47
2019-05-11T13:22:42.964Z,1.30
2019-05-11T13:25:42.978Z,1.10
2019-05-11T13:29:00.980Z,1.13
2019-05-11T13:31:59.042Z,1.30
2019-05-11T13:35:09.172Z,1.30
2019-05-11T13:38:14.388Z,1.07
2019-05-11T13:41:20.318Z,1.50
2019-05-11T13:44:25.107Z,1.50
2019-05-11T13:47:22.900Z,1.20
2019-05-11T13:50:24.539Z,1.20
2019-05-11T13:53:27.646Z,1.27
2019-05-11T13:56:27.992Z,1.10
2019-05-11T13:59:33.137Z,1.07
2019-05-11T14:02:30.558Z,0.90
2019-05-11T14:05:34.181Z,1.40
2019-05-11T14:08:32.069Z,1.23
2019-05-11T14:11:39.082Z,1.03
2019-05-11T14:14:57.167Z,1.07
2019-05-11T14:18:05.780Z,1.13
2019-05-11T14:21:08.343Z,1.10
2019-05-11T14:24:14.575Z,1.40
2019-05-11T14:27:30.498Z,1.17
2019-05-11T14:30:34.550Z,1.10
2019-05-11T14:33:35.527Z,0.97
2019-05-11T14:36:42.913Z,1.33
2019-05-11T14:39:50.394Z,1.40
2019-05-11T14:42:52.997Z,1.10
2019-05-11T14:45:55.112Z,1.30
2019-05-11T14:49:12.574Z,1.07
2019-05-11T14:52:08.307Z,1.30
2019-05-11T14:55:18.427Z,1.00
2019-05-11T14:58:22.010Z,1.07
2019-05-11T15:01:28.697Z,1.10
2019-05-11T15:04:24.282Z,1.10
2019-05-11T15:07:40.097Z,1.23
2019-05-11T15:10:38.113Z,1.13
2019-05-11T15:16:45.365Z,1.00
2019-05-11T15:19:50.579Z,1.03
2019-05-11T15:22:58.577Z,0.90
2019-05-11T15:25:59.576Z,0.90
2019-05-11T15:29:08.140Z,1.10
2019-05-11T15:32:19.717Z,1.17
2019-05-11T15:35:23.661Z,1.10
2019-05-11T15:38:28.373Z,0.97
2019-05-11T15:41:30.420Z,1.03
2019-05-11T15:44:24.133Z,1.20
2019-05-11T15:47:28.347Z,1.20
2019-05-11T15:50:41.257Z,1.10
2019-05-11T15:53:41.638Z,1.03
2019-05-11T15:56:55.105Z,1.10
2019-05-11T16:00:05.543Z,1.03
2019-05-11T16:03:00.250Z,0.90
2019-05-11T16:06:07.666Z,0.90
2019-05-11T16:09:08.185Z,0.93
2019-05-11T16:12:09.819Z,0.90
2019-05-11T16:15:08.661Z,1.00
2019-05-11T16:18:10.627Z,0.80
2019-05-11T16:21:11.917Z,1.03
2019-05-11T16:24:20.031Z,1.20
2019-05-11T16:27:28.371Z,1.03
2019-05-11T16:30:30.903Z,0.80
2019-05-11T16:33:36.779Z,1.10
2019-05-11T16:36:42.466Z,1.00
2019-05-11T16:39:47.397Z,1.07
2019-05-11T16:42:55.958Z,1.10
2019-05-11T16:45:51.052Z,0.87
2019-05-11T16:48:57.786Z,1.33
2019-05-11T16:51:49.696Z,0.90
2019-05-11T16:54:51.457Z,0.87
2019-05-11T16:58:01.696Z,1.13
2019-05-11T17:01:08.386Z,1.17
2019-05-11T17:04:07.031Z,1.00
2019-05-11T17:07:07.608Z,0.80
2019-05-11T17:10:02.588Z,0.87
2019-05-11T17:13:09.321Z,0.97
2019-05-11T17:16:03.370Z,0.90
2019-05-11T17:19:21.568Z,0.90
2019-05-11T17:22:28.063Z,0.90
2019-05-11T17:28:38.668Z,1.00
2019-05-11T17:31:42.245Z,1.20
2019-05-11T17:34:39.585Z,1.00
2019-05-11T17:37:42.290Z,1.00
2019-05-11T17:40:41.358Z,0.90
2019-05-11T17:50:47.617Z,0.90
2019-05-11T17:53:41.400Z,0.83
2019-05-11T17:56:48.327Z,1.07
2019-05-11T18:00:02.116Z,1.00
2019-05-11T18:03:16.326Z,1.00
2019-05-11T18:06:15.681Z,0.87
2019-05-11T18:09:14.365Z,1.17
2019-05-11T18:12:13.232Z,1.10
2019-05-11T18:15:19.244Z,0.87
2019-05-11T18:18:14.341Z,0.90
2019-05-11T18:21:48.809Z,1.13
2019-05-11T18:24:34.942Z,0.87
2019-05-11T18:27:40.054Z,1.13
2019-05-11T18:30:32.291Z,1.10
2019-05-11T18:33:48.720Z,1.27
2019-05-11T18:36:45.148Z,1.00
2019-05-11T18:39:42.404Z,0.70
2019-05-11T18:42:48.481Z,0.80
2019-05-11T18:45:48.708Z,0.87
2019-05-11T18:49:05.152Z,1.00
2019-05-11T18:52:08.211Z,0.90
2019-05-11T18:55:01.410Z,0.87
2019-05-11T18:58:14.556Z,0.80
2019-05-11T19:01:06.052Z,0.93
2019-05-11T19:04:13.030Z,0.90
2019-05-11T19:07:16.741Z,0.90
2019-05-11T19:10:42.420Z,0.90
2019-05-11T19:13:48.157Z,0.93
2019-05-11T19:16:56.883Z,0.70
2019-05-11T19:19:57.961Z,0.90
2019-05-11T19:23:15.169Z,1.10
2019-05-11T19:26:09.534Z,1.13
2019-05-11T19:29:18.834Z,1.00
2019-05-11T19:32:15.416Z,0.77
2019-05-11T19:35:20.992Z,1.00
2019-05-11T19:38:22.057Z,0.90
2019-05-11T19:41:24.132Z,0.60
2019-05-11T19:44:22.062Z,0.80
2019-05-11T19:47:28.776Z,1.00
2019-05-11T19:50:20.917Z,0.70
2019-05-11T19:53:38.614Z,0.90
2019-05-11T19:56:32.504Z,0.70
2019-05-11T19:59:38.742Z,1.00
2019-05-11T20:05:57.813Z,0.90
2019-05-11T20:08:49.155Z,0.77
2019-05-11T20:11:58.114Z,0.70
2019-05-11T20:14:56.008Z,0.83
2019-05-11T20:17:55.721Z,1.00
2019-05-11T20:20:51.078Z,0.70
2019-05-11T20:23:50.310Z,0.87
2019-05-11T20:26:43.616Z,0.90
2019-05-11T20:29:47.775Z,0.60
2019-05-11T20:32:44.256Z,1.00
2019-05-11T20:35:45.996Z,0.83
2019-05-11T20:38:41.723Z,0.70
2019-05-11T20:41:48.258Z,1.00
2019-05-11T20:44:43.360Z,0.90
2019-05-11T20:51:02.833Z,0.80
2019-05-11T20:54:11.705Z,0.97
2019-05-11T20:57:09.594Z,0.67
2019-05-11T21:00:10.069Z,0.80
2019-05-11T21:03:24.521Z,1.00
2019-05-11T21:06:34.282Z,1.00
2019-05-11T21:09:28.974Z,0.70
2019-05-11T21:12:33.619Z,0.87
2019-05-11T21:15:34.420Z,0.77
2019-05-11T21:18:38.103Z,1.10
2019-05-11T21:21:49.460Z,0.93
2019-05-11T21:27:53.987Z,0.77
2019-05-11T21:31:13.482Z,0.88
2019-05-11T21:34:09.173Z,0.80
2019-05-11T21:37:13.352Z,0.90
2019-05-11T21:40:16.014Z,0.80
2019-05-11T21:43:18.119Z,0.80
2019-05-11T21:46:30.901Z,0.80
2019-05-11T21:49:29.581Z,0.53
2019-05-11T21:52:28.732Z,0.70
2019-05-11T21:55:22.332Z,0.80
2019-05-11T21:58:30.853Z,0.60
2019-05-11T22:01:38.340Z,0.97
2019-05-11T22:04:41.617Z,0.83
2019-05-11T22:08:00.048Z,0.80
2019-05-11T22:11:00.008Z,0.90
2019-05-11T22:14:17.493Z,0.80
2019-05-11T22:17:10.530Z,0.80
2019-05-11T22:20:07.749Z,0.63
2019-05-11T22:23:14.254Z,0.80
2019-05-11T22:26:14.679Z,0.80
2019-05-11T22:29:21.199Z,0.80
2019-05-11T22:32:23.440Z,0.80
2019-05-11T22:35:28.411Z,0.60
2019-05-11T22:38:23.727Z,0.80
2019-05-11T22:41:31.920Z,0.70
2019-05-11T22:44:39.523Z,0.87
2019-05-11T22:47:43.481Z,0.70
2019-05-11T22:50:50.662Z,0.80
2019-05-11T22:53:47.967Z,0.83
2019-05-11T22:56:52.279Z,0.60
2019-05-11T22:59:53.655Z,0.60
2019-05-11T23:03:07.649Z,0.60
2019-05-11T23:06:08.494Z,0.70
2019-05-11T23:09:27.589Z,0.90
2019-05-11T23:12:22.735Z,0.80
2019-05-11T23:15:23.555Z,0.60
2019-05-11T23:18:32.900Z,0.70
2019-05-11T23:21:48.454Z,0.90
2019-05-11T23:24:50.417Z,0.70
2019-05-11T23:27:59.150Z,0.90
2019-05-11T23:30:58.772Z,0.83
2019-05-11T23:34:10.816Z,0.70
2019-05-11T23:37:15.267Z,0.70
2019-05-11T23:40:22.437Z,0.90
2019-05-11T23:43:20.773Z,0.70
2019-05-11T23:46:17.492Z,0.80
2019-05-11T23:49:12.139Z,0.70
2019-05-11T23:52:18.088Z,0.90
2019-05-11T23:55:20.679Z,0.80
2019-05-11T23:58:14.105Z,0.70
